Northsea Beta — 9HA2594 — position and weather

sailwx.info

Track history (hours):
 
Tides and Currents Weather Stations Pressure Air Temp Water Temp Dewpoint Dewpoint Depression Visibility Wind Speed Wind Dir Waves Ship Positions

Northsea Beta

Last reported at 2016-Feb-10 04:11 UTC. Time now 2016-Feb-13 02:38 UTC.
Position N 50°40' W 005°19'.

Length 110 m; draft 7.8 m.

Type: Tanker. MMSI: 248970000.

Date/timePositionNaut miles runAvg speedWind from/ knotsBaromVisibWave heightAir tempDewpointWater temp
2016-Feb-10 04:11N 50°40' W 005°19'162 6.2
2016-Feb-09 02:11N 50°36' W 001°04'710.6
2016-Feb-09 01:33N 50°41' W 000°58'9 9.1
2016-Feb-09 00:34N 50°46' W 001°10'8 0.2
2016-Feb-07 03:33N 50°51' W 001°20'2 0.3
2016-Feb-06 20:34N 50°49' W 001°18'1210.9
2016-Feb-06 19:28N 50°43' W 001°02'1 0.7
2016-Feb-06 17:22N 50°42' W 001°03'0 0.0
2016-Feb-06 15:28N 50°42' W 001°03'0 0.0
2016-Feb-06 00:19N 50°42' W 001°03'0 0.0
2016-Feb-05 23:31N 50°42' W 001°03'0 0.0
2016-Feb-05 22:31N 50°42' W 001°03'0 0.0
2016-Feb-05 21:28N 50°42' W 001°03'0 0.0
2016-Feb-05 19:13N 50°42' W 001°03'0 0.0
2016-Feb-05 16:21N 50°42' W 001°03'0 0.0
2016-Feb-05 12:12N 50°42' W 001°03'5 8.4
2016-Feb-05 11:33N 50°41' W 000°55'8710.9
2016-Feb-05 03:33N 51°00' E 001°20'1313.1
2016-Feb-05 02:33N 51°08' E 001°36'1212.3
2016-Feb-05 01:34N 51°18' E 001°49'1211.8
2016-Feb-05 00:34N 51°28' E 001°58'1211.4
2016-Feb-04 23:32N 51°37' E 002°10'15 4.9
2016-Feb-04 20:29N 51°52' E 002°05'1112.3
2016-Feb-04 19:34N 51°48' E 001°48'1110.9
2016-Feb-04 18:34N 51°55' E 001°34'10 9.6
2016-Feb-04 17:34N 51°57' E 001°18'2 2.4
2016-Feb-04 16:32N 51°57' E 001°14'0 0.0
2016-Feb-04 15:32N 51°57' E 001°14'0 0.0
2016-Feb-04 14:32N 51°57' E 001°14'0 0.0
2016-Feb-04 13:29N 51°57' E 001°14'0 0.0
2016-Feb-04 12:32N 51°57' E 001°14'0 0.0
2016-Feb-04 11:29N 51°57' E 001°14'0 0.0
2016-Feb-04 10:29N 51°57' E 001°14'0 0.0
2016-Feb-04 09:32N 51°57' E 001°14'0 0.0
2016-Feb-04 08:29N 51°57' E 001°14'0 0.0
2016-Feb-04 07:29N 51°57' E 001°14'0 0.0
2016-Feb-04 06:32N 51°57' E 001°14'0 0.0
2016-Feb-04 05:26N 51°57' E 001°14'0 0.0
2016-Feb-04 04:32N 51°57' E 001°14'0 0.0
2016-Feb-04 03:32N 51°57' E 001°14'0 0.0
2016-Feb-04 02:32N 51°57' E 001°14'0 0.0
2016-Feb-04 01:32N 51°57' E 001°14'0 0.0
2016-Feb-04 00:32N 51°57' E 001°14'0 0.0
2016-Feb-03 23:32N 51°57' E 001°14'0 0.0
2016-Feb-03 22:32N 51°57' E 001°14'0 0.0
2016-Feb-03 21:29N 51°57' E 001°14'0 0.0
2016-Feb-03 20:32N 51°57' E 001°14'0 0.0
2016-Feb-03 19:32N 51°57' E 001°14'0 0.0
2016-Feb-03 18:32N 51°57' E 001°14'0 0.0
2016-Feb-03 17:29N 51°57' E 001°14'0 0.0
2016-Feb-03 16:32N 51°57' E 001°14'0 0.0
2016-Feb-03 15:32N 51°57' E 001°14'0 0.0
2016-Feb-03 14:32N 51°57' E 001°14'0 0.0
2016-Feb-03 13:32N 51°57' E 001°14'0 0.0
2016-Feb-03 12:29N 51°57' E 001°14'0 0.0
2016-Feb-03 11:32N 51°57' E 001°14'0 0.0
2016-Feb-03 10:32N 51°57' E 001°14'0 0.0
2016-Feb-03 09:32N 51°57' E 001°14'0 0.0
2016-Feb-03 08:32N 51°57' E 001°14'0 0.0
2016-Feb-03 07:32N 51°57' E 001°14'0 0.0
2016-Feb-03 06:32N 51°57' E 001°14'0 0.0
2016-Feb-03 05:32N 51°57' E 001°14'0 0.0
2016-Feb-03 04:32N 51°57' E 001°14'0 0.0
2016-Feb-03 03:32N 51°57' E 001°14'0 0.0
2016-Feb-03 02:32N 51°57' E 001°14'1 0.6
2016-Feb-03 01:33N 51°57' E 001°15'8 8.1
2016-Feb-03 00:33N 51°56' E 001°28'3 2.5
2016-Feb-02 23:32N 51°58' E 001°32'0 0.0
2016-Feb-02 22:32N 51°58' E 001°32'5 4.7
2016-Feb-02 21:33N 51°53' E 001°34'10 9.6
2016-Feb-02 20:33N 51°51' E 001°49'76 9.5
2016-Feb-02 12:33N 52°02' E 003°50'9 8.8
2016-Feb-02 11:34N 51°59' E 004°04'6 0.1
2016-Jan-31 18:33N 51°56' E 004°12'5 4.6
2016-Jan-31 17:33N 51°58' E 004°06'10 9.9
2016-Jan-31 16:33N 51°59' E 003°50'2 2.0
2016-Jan-31 15:31N 51°57' E 003°48'0 0.0
2016-Jan-31 11:31N 51°57' E 003°49'0 0.0
2016-Jan-31 10:28N 51°57' E 003°49'0 0.0
2016-Jan-31 09:31N 51°57' E 003°49'0 0.0
2016-Jan-31 08:19N 51°57' E 003°49'0 0.0
2016-Jan-31 07:22N 51°57' E 003°49'0 0.0
2016-Jan-31 06:25N 51°57' E 003°49'0 0.0
2016-Jan-31 05:31N 51°57' E 003°49'0 0.1
2016-Jan-31 04:31N 51°57' E 003°49'  
Track history (hours):
 
Tides and Currents Weather Stations Pressure Air Temp Water Temp Dewpoint Dewpoint Depression Visibility Wind Speed Wind Dir Waves Ship Positions

Northsea Beta

Last reported at 2016-Feb-10 04:11 UTC. Time now 2016-Feb-13 02:38 UTC.
Position N 50°40' W 005°19'.

Length 110 m; draft 7.8 m.

Type: Tanker. MMSI: 248970000.

Date/timePositionNaut miles runAvg speedWind from/ knotsBaromVisibWave heightAir tempDewpointWater temp
2016-Feb-10 04:11N 50°40' W 005°19'162 6.2
2016-Feb-09 02:11N 50°36' W 001°04'710.6
2016-Feb-09 01:33N 50°41' W 000°58'9 9.1
2016-Feb-09 00:34N 50°46' W 001°10'8 0.2
2016-Feb-07 03:33N 50°51' W 001°20'2 0.3
2016-Feb-06 20:34N 50°49' W 001°18'1210.9
2016-Feb-06 19:28N 50°43' W 001°02'1 0.7
2016-Feb-06 17:22N 50°42' W 001°03'0 0.0
2016-Feb-06 15:28N 50°42' W 001°03'0 0.0
2016-Feb-06 00:19N 50°42' W 001°03'0 0.0
2016-Feb-05 23:31N 50°42' W 001°03'0 0.0
2016-Feb-05 22:31N 50°42' W 001°03'0 0.0
2016-Feb-05 21:28N 50°42' W 001°03'0 0.0
2016-Feb-05 19:13N 50°42' W 001°03'0 0.0
2016-Feb-05 16:21N 50°42' W 001°03'0 0.0
2016-Feb-05 12:12N 50°42' W 001°03'5 8.4
2016-Feb-05 11:33N 50°41' W 000°55'8710.9
2016-Feb-05 03:33N 51°00' E 001°20'1313.1
2016-Feb-05 02:33N 51°08' E 001°36'1212.3
2016-Feb-05 01:34N 51°18' E 001°49'1211.8
2016-Feb-05 00:34N 51°28' E 001°58'1211.4
2016-Feb-04 23:32N 51°37' E 002°10'15 4.9
2016-Feb-04 20:29N 51°52' E 002°05'1112.3
2016-Feb-04 19:34N 51°48' E 001°48'1110.9
2016-Feb-04 18:34N 51°55' E 001°34'10 9.6
2016-Feb-04 17:34N 51°57' E 001°18'2 2.4
2016-Feb-04 16:32N 51°57' E 001°14'0 0.0
2016-Feb-04 15:32N 51°57' E 001°14'0 0.0
2016-Feb-04 14:32N 51°57' E 001°14'0 0.0
2016-Feb-04 13:29N 51°57' E 001°14'0 0.0
2016-Feb-04 12:32N 51°57' E 001°14'0 0.0
2016-Feb-04 11:29N 51°57' E 001°14'0 0.0
2016-Feb-04 10:29N 51°57' E 001°14'0 0.0
2016-Feb-04 09:32N 51°57' E 001°14'0 0.0
2016-Feb-04 08:29N 51°57' E 001°14'0 0.0
2016-Feb-04 07:29N 51°57' E 001°14'0 0.0
2016-Feb-04 06:32N 51°57' E 001°14'0 0.0
2016-Feb-04 05:26N 51°57' E 001°14'0 0.0
2016-Feb-04 04:32N 51°57' E 001°14'0 0.0
2016-Feb-04 03:32N 51°57' E 001°14'0 0.0
2016-Feb-04 02:32N 51°57' E 001°14'0 0.0
2016-Feb-04 01:32N 51°57' E 001°14'0 0.0
2016-Feb-04 00:32N 51°57' E 001°14'0 0.0
2016-Feb-03 23:32N 51°57' E 001°14'0 0.0
2016-Feb-03 22:32N 51°57' E 001°14'0 0.0
2016-Feb-03 21:29N 51°57' E 001°14'0 0.0
2016-Feb-03 20:32N 51°57' E 001°14'0 0.0
2016-Feb-03 19:32N 51°57' E 001°14'0 0.0
2016-Feb-03 18:32N 51°57' E 001°14'0 0.0
2016-Feb-03 17:29N 51°57' E 001°14'0 0.0
2016-Feb-03 16:32N 51°57' E 001°14'0 0.0
2016-Feb-03 15:32N 51°57' E 001°14'0 0.0
2016-Feb-03 14:32N 51°57' E 001°14'0 0.0
2016-Feb-03 13:32N 51°57' E 001°14'0 0.0
2016-Feb-03 12:29N 51°57' E 001°14'0 0.0
2016-Feb-03 11:32N 51°57' E 001°14'0 0.0
2016-Feb-03 10:32N 51°57' E 001°14'0 0.0
2016-Feb-03 09:32N 51°57' E 001°14'0 0.0
2016-Feb-03 08:32N 51°57' E 001°14'0 0.0
2016-Feb-03 07:32N 51°57' E 001°14'0 0.0
2016-Feb-03 06:32N 51°57' E 001°14'0 0.0
2016-Feb-03 05:32N 51°57' E 001°14'0 0.0
2016-Feb-03 04:32N 51°57' E 001°14'0 0.0
2016-Feb-03 03:32N 51°57' E 001°14'0 0.0
2016-Feb-03 02:32N 51°57' E 001°14'1 0.6
2016-Feb-03 01:33N 51°57' E 001°15'8 8.1
2016-Feb-03 00:33N 51°56' E 001°28'3 2.5
2016-Feb-02 23:32N 51°58' E 001°32'0 0.0
2016-Feb-02 22:32N 51°58' E 001°32'5 4.7
2016-Feb-02 21:33N 51°53' E 001°34'10 9.6
2016-Feb-02 20:33N 51°51' E 001°49'76 9.5
2016-Feb-02 12:33N 52°02' E 003°50'9 8.8
2016-Feb-02 11:34N 51°59' E 004°04'6 0.1
2016-Jan-31 18:33N 51°56' E 004°12'5 4.6
2016-Jan-31 17:33N 51°58' E 004°06'10 9.9
2016-Jan-31 16:33N 51°59' E 003°50'2 2.0
2016-Jan-31 15:31N 51°57' E 003°48'0 0.0
2016-Jan-31 11:31N 51°57' E 003°49'0 0.0
2016-Jan-31 10:28N 51°57' E 003°49'0 0.0
2016-Jan-31 09:31N 51°57' E 003°49'0 0.0
2016-Jan-31 08:19N 51°57' E 003°49'0 0.0
2016-Jan-31 07:22N 51°57' E 003°49'0 0.0
2016-Jan-31 06:25N 51°57' E 003°49'0 0.0
2016-Jan-31 05:31N 51°57' E 003°49'0 0.1
2016-Jan-31 04:31N 51°57' E 003°49'  

Dump ship's entire track history